Terminal Aerodrome Forecast
Issued by NWS

Home | Current Version | Previous Version | Text Only | Print | Product List | Glossary On
Versions: 1 2 3 4 5 6 7 8 9 10 11 12
000
FTUS42 KMLB 201727
TAFFPR
TAF
KFPR 201727Z 2018/2118 07009KT P6SM SKC
     FM210500 08008KT P6SM VCSH SCT020 BKN040
     FM211400 10014G22KT P6SM VCSH SCT025 BKN050=

USA.gov is the U.S. government's official web portal to all federal, state and local government web resources and services.